Flight Track Log - Related Links

Times and Time Zones

All times are in EDT time to prevent confusion due to time zone crossing. See the CCA4298 flight status page for this flight to view local times or setup timezone preferences in your user account.

Time Position Orientation Groundspeed Altitude Reporting Facility
EDT Latitude Longitude Course Direction KTS MPH feet Rate Location/Type
Sun 04:53:00 AM 32.6531 103.8834 140° Southeast  Level Estimated
Sun 04:54:00 AM 32.6021 103.9334 140° Southeast  Level Estimated
Sun 04:55:00 AM 32.5511 103.9833 141° Southeast  Level Estimated
Sun 04:56:00 AM 32.5000 104.0331 141° Southeast  Level Estimated
Sun 04:57:00 AM 32.4490 104.0829 141° Southeast  Level Estimated
Sun 04:58:00 AM 32.3979 104.1326 141° Southeast  Level Estimated
Sun 04:59:00 AM 32.3468 104.1823 141° Southeast  Level Estimated
Sun 05:00:00 AM 32.2956 104.2319 141° Southeast  Level Estimated
Sun 05:01:00 AM 32.2445 104.2815 141° Southeast  Level Estimated
Sun 05:02:00 AM 32.1933 104.3310 141° Southeast  Level Estimated
Sun 05:03:00 AM 32.1421 104.3804 141° Southeast  Level Estimated
Sun 05:04:00 AM 32.0909 104.4298 141° Southeast  Level Estimated
Sun 05:05:00 AM 32.0397 104.4792 141° Southeast  Level Estimated
Sun 05:06:00 AM 31.9884 104.5284 141° Southeast  Level Estimated
Sun 05:07:00 AM 31.9372 104.5777 141° Southeast  Level Estimated
Sun 05:08:00 AM 31.8859 104.6268 141° Southeast  Level Estimated
Sun 05:09:00 AM 31.8346 104.6760 141° Southeast  Level Estimated
Sun 05:10:00 AM 31.7833 104.7250 141° Southeast  Level Estimated
Sun 05:11:00 AM 31.7319 104.7740 141° Southeast  Level Estimated
Sun 05:12:00 AM 31.6805 104.8230 141° Southeast  Level Estimated
Sun 05:13:00 AM 31.6292 104.8719 141° Southeast  Level Estimated
Sun 05:14:00 AM 31.5778 104.9207 141° Southeast  Level Estimated
Sun 05:15:00 AM 31.5264 104.9695 141° Southeast  Level Estimated
Sun 05:16:00 AM 31.4749 105.0183 141° Southeast  Level Estimated
Sun 05:17:00 AM 31.4235 105.0670 141° Southeast  Level Estimated
Sun 05:18:00 AM 31.3720 105.1156 141° Southeast  Level Estimated
Sun 05:19:00 AM 31.3205 105.1642 141° Southeast  Level Estimated
Sun 05:20:00 AM 31.2690 105.2127 141° Southeast  Level Estimated
Sun 05:21:00 AM 31.2175 105.2612 141° Southeast  Level Estimated
Sun 05:22:00 AM 31.1659 105.3096 141° Southeast  Level Estimated
Sun 05:23:00 AM 31.1143 105.3580 141° Southeast  Level Estimated
Sun 05:24:00 AM 31.0628 105.4063 141° Southeast  Level Estimated
Sun 05:25:00 AM 31.0112 105.4545 141° Southeast  Level Estimated
Sun 05:26:00 AM 30.9596 105.5027 141° Southeast  Level Estimated
Sun 05:27:00 AM 30.9079 105.5509 141° Southeast  Level Estimated
Sun 05:28:00 AM 30.8563 105.5990 141° Southeast  Level Estimated
Sun 05:29:00 AM 30.8046 105.6471 141° Southeast  Level Estimated
Sun 05:30:00 AM 30.7529 105.6951 141° Southeast  Level Estimated
Sun 05:31:00 AM 30.7012 105.7430 141° Southeast  Level Estimated
Sun 05:32:00 AM 30.6495 105.7909 141° Southeast  Level Estimated
Sun 05:33:00 AM 30.5977 105.8388 141° Southeast  Level Estimated
Sun 05:34:00 AM 30.5460 105.8866 141° Southeast  Level Estimated
Sun 05:35:00 AM 30.4942 105.9343 142° Southeast  Level Estimated
Sun 05:36:00 AM 30.4424 105.9820 142° Southeast  Level Estimated
Sun 05:37:00 AM 30.3906 106.0297 142° Southeast  Level Estimated
Sun 05:38:00 AM 30.3388 106.0773 142° Southeast  Level Estimated
Sun 05:39:00 AM 30.2869 106.1248 142° Southeast  Level Estimated
Sun 05:40:00 AM 30.2351 106.1723 142° Southeast  Level Estimated
Sun 05:41:00 AM 30.1832 106.2197 142° Southeast  Level Estimated
Sun 05:42:00 AM 30.1313 106.2671 142° Southeast  Level Estimated
Sun 05:43:00 AM 30.0794 106.3145 142° Southeast  Level Estimated
Sun 05:44:00 AM 30.0274 106.3618 142° Southeast  Level Estimated
Sun 05:45:00 AM 29.9755 106.4090 142° Southeast  Level Estimated
Sun 05:46:00 AM 29.9235 106.4562 142° Southeast  Level Estimated
Sun 05:47:00 AM 29.8715 106.5034 142° Southeast  Level Estimated
Sun 05:48:00 AM 29.8195 106.5505 142° Southeast  Level Estimated
Sun 05:49:00 AM 29.7675 106.5975 142° Southeast  Level Estimated
Sun 05:50:00 AM 29.7194 106.6410 142° Southeast  Level Estimated
Sun 05:51:00 AM 29.7194 106.6410 60° Northeast  Level Estimated
Sun 05:52:00 AM 29.7194 106.6410 60° Northeast  Level Estimated
Sun 05:53:00 AM 29.7194 106.6410 60° Northeast  Level Estimated
Sun 05:54:00 AM 29.7194 106.6410 60° Northeast  Level Estimated
Sun 05:55:00 AM 29.7194 106.6410 60° Northeast  Level Estimated
Sun 05:56:00 AM 29.7194 106.6410 60° Northeast  Level Estimated
Sun 05:57:00 AM 29.7194 106.6410 60° Northeast  Level Estimated
Sun 05:58:00 AM 29.7194 106.6410 60° Northeast  Level Estimated

Login

Don't have an account? Register now (free) for customized features, flight alerts, and more!